Time;durP1;ratioP1;P1;durP2;ratioP2;P2;SDS_P1;SDS_P2;PMS_P1;PMS_P2;Temp;Humidity;BMP_temperature;BMP_pressure;BME280_temperature;BME280_humidity;BME280_pressure;Samples;Min_cycle;Max_cycle;Signal;HPM_P1;HPM_P2
2023/06/30 00:00:44;;;;;;;;;;;;;;;;;;7367811;19;1841;-62
2023/06/30 00:03:15;;;;;;;;;;;;;;;;;;7362770;19;1845;-64
2023/06/30 00:05:43;;;;;;;;;;;;;;;;;;7366962;19;1827;-61
2023/06/30 00:08:11;;;;;;;;;;;;;;;;;;7366299;19;1608;-61
2023/06/30 00:10:39;;;;;;;;;;;;;;;;;;7362723;19;821;-62
2023/06/30 00:13:07;;;;;;;;;;;;;;;;;;7359348;19;1677;-62
2023/06/30 00:15:35;;;;;;;;;;;;;;;;;;7363363;19;825;-61
2023/06/30 00:18:03;;;;;;;;;;;;;;;;;;7363295;19;809;-62
2023/06/30 00:20:33;;;;;;;;;;;;;;;;;;7364107;19;1582;-62
2023/06/30 00:23:01;;;;;;;;;;;;;;;;;;7365333;19;1846;-61
2023/06/30 00:25:29;;;;;;;;;;;;;;;;;;7373420;19;1452;-62
2023/06/30 00:27:58;;;;;;;;;;;;;;;;;;7369749;19;785;-62
2023/06/30 00:30:26;;;;;;;;;;;;;;;;;;7370419;19;1913;-61
2023/06/30 00:32:54;;;;;;;;;;;;;;;;;;7371266;19;1802;-62
2023/06/30 00:35:22;;;;;;;;;;;;;;;;;;7372572;19;1636;-62
2023/06/30 00:37:50;;;;;;;;;;;;;;;;;;7370729;19;1743;-62
2023/06/30 00:40:19;;;;;;;;;;;;;;;;;;7371559;19;1257;-62
2023/06/30 00:42:47;;;;;;;;;;;;;;;;;;7366400;19;1858;-59
2023/06/30 00:45:15;;;;;;;;;;;;;;;;;;7369562;19;1823;-60
2023/06/30 00:47:43;;;;;;;;;;;;;;;;;;7373549;19;1651;-61
2023/06/30 00:50:11;;;;;;;;;;;;;;;;;;7367508;19;1650;-62
2023/06/30 00:52:42;;;;;;;;;;;;;;;;;;7369252;19;1922;-60
2023/06/30 00:55:10;;;;;;;;;;;;;;;;;;7370692;19;2033;-58
2023/06/30 00:57:38;;;;;;;;;;;;;;;;;;7371729;19;1706;-60
2023/06/30 01:00:11;;;;;;;;;;;;;;;;;;7368307;19;1660;-59
2023/06/30 01:02:39;;;;;;;;;;;;;;;;;;7370752;19;1861;-58
2023/06/30 01:05:07;;;;;;;;;;;;;;;;;;7371623;19;1975;-59
2023/06/30 01:07:35;;;;;;;;;;;;;;;;;;7371353;19;1726;-59
2023/06/30 01:10:04;;;;;;;;;;;;;;;;;;7372658;19;1788;-58
2023/06/30 01:12:32;;;;;;;;;;;;;;;;;;7367505;19;1280;-56
2023/06/30 01:15:00;;;;;;;;;;;;;;;;;;7368636;19;820;-59
2023/06/30 01:17:28;;;;;;;;;;;;;;;;;;7368615;19;1819;-60
2023/06/30 01:19:56;;;;;;;;;;;;;;;;;;7367427;19;1791;-60
2023/06/30 01:22:24;;;;;;;;;;;;;;;;;;7367145;19;1813;-61
2023/06/30 01:24:53;;;;;;;;;;;;;;;;;;7371356;19;1617;-61
2023/06/30 01:27:21;;;;;;;;;;;;;;;;;;7371686;19;1804;-60
2023/06/30 01:29:49;;;;;;;;;;;;;;;;;;7367083;19;1677;-61
2023/06/30 01:32:17;;;;;;;;;;;;;;;;;;7361712;19;1275;-61
2023/06/30 01:34:46;;;;;;;;;;;;;;;;;;7369132;19;2221;-60
2023/06/30 01:37:14;;;;;;;;;;;;;;;;;;7369859;19;1779;-60
2023/06/30 01:39:42;;;;;;;;;;;;;;;;;;7368731;19;1918;-60
2023/06/30 01:42:10;;;;;;;;;;;;;;;;;;7370416;19;1881;-59
2023/06/30 01:44:38;;;;;;;;;;;;;;;;;;7367186;19;860;-58
2023/06/30 01:47:07;;;;;;;;;;;;;;;;;;7367849;19;2025;-59
2023/06/30 01:49:35;;;;;;;;;;;;;;;;;;7370199;19;1654;-60
2023/06/30 01:52:03;;;;;;;;;;;;;;;;;;7370950;19;1781;-61
2023/06/30 01:54:31;;;;;;;;;;;;;;;;;;7370153;19;1969;-58
2023/06/30 01:56:59;;;;;;;;;;;;;;;;;;7370491;19;1667;-59
2023/06/30 01:59:28;;;;;;;;;;;;;;;;;;7368655;19;2043;-60
2023/06/30 02:01:56;;;;;;;;;;;;;;;;;;7371154;19;1849;-59
2023/06/30 02:04:24;;;;;;;;;;;;;;;;;;7368834;19;1656;-61
2023/06/30 02:06:52;;;;;;;;;;;;;;;;;;7371186;19;1631;-56
2023/06/30 02:09:21;;;;;;;;;;;;;;;;;;7369061;19;1752;-54
2023/06/30 02:11:49;;;;;;;;;;;;;;;;;;7367544;19;1668;-61
2023/06/30 02:14:18;;;;;;;;;;;;;;;;;;7371629;19;1978;-59
2023/06/30 02:16:46;;;;;;;;;;;;;;;;;;7370528;19;1554;-59
2023/06/30 02:19:14;;;;;;;;;;;;;;;;;;7368000;19;1691;-60
2023/06/30 02:21:42;;;;;;;;;;;;;;;;;;7365005;19;1848;-61
2023/06/30 02:24:10;;;;;;;;;;;;;;;;;;7366987;19;900;-60
2023/06/30 02:26:39;;;;;;;;;;;;;;;;;;7368775;19;1747;-59
2023/06/30 02:29:07;;;;;;;;;;;;;;;;;;7368510;19;2038;-60
2023/06/30 02:31:35;;;;;;;;;;;;;;;;;;7367625;19;1553;-60
2023/06/30 02:34:03;;;;;;;;;;;;;;;;;;7371898;19;1530;-59
2023/06/30 02:36:31;;;;;;;;;;;;;;;;;;7366413;19;766;-59
2023/06/30 02:38:59;;;;;;;;;;;;;;;;;;7362836;19;1697;-59
2023/06/30 02:41:27;;;;;;;;;;;;;;;;;;7368439;19;1606;-59
2023/06/30 02:43:58;;;;;;;;;;;;;;;;;;7368511;19;1753;-60
2023/06/30 02:46:27;;;;;;;;;;;;;;;;;;7365988;19;1678;-59
2023/06/30 02:48:55;;;;;;;;;;;;;;;;;;7364097;19;769;-59
2023/06/30 02:51:24;;;;;;;;;;;;;;;;;;7360087;19;1230;-60
2023/06/30 02:53:52;;;;;;;;;;;;;;;;;;7356185;19;2072;-59
2023/06/30 02:56:20;;;;;;;;;;;;;;;;;;7367524;19;1670;-58
2023/06/30 02:58:48;;;;;;;;;;;;;;;;;;7368163;19;1782;-60
2023/06/30 03:01:20;;;;;;;;;;;;;;;;;;7364418;19;1360;-60
2023/06/30 03:03:49;;;;;;;;;;;;;;;;;;7362189;19;1849;-60
2023/06/30 03:06:17;;;;;;;;;;;;;;;;;;7365554;19;1968;-58
2023/06/30 03:08:46;;;;;;;;;;;;;;;;;;7366312;19;1624;-59
2023/06/30 03:11:15;;;;;;;;;;;;;;;;;;7367117;19;1752;-60
2023/06/30 03:13:43;;;;;;;;;;;;;;;;;;7369091;19;1646;-60
2023/06/30 03:16:12;;;;;;;;;;;;;;;;;;7366177;19;1929;-60
2023/06/30 03:18:40;;;;;;;;;;;;;;;;;;7366352;19;1677;-59
2023/06/30 03:21:08;;;;;;;;;;;;;;;;;;7364570;19;907;-58
2023/06/30 03:23:37;;;;;;;;;;;;;;;;;;7361107;19;1868;-58
2023/06/30 03:26:05;;;;;;;;;;;;;;;;;;7364591;19;1629;-59
2023/06/30 03:28:33;;;;;;;;;;;;;;;;;;7365779;19;1404;-59
2023/06/30 03:31:01;;;;;;;;;;;;;;;;;;7364692;19;1870;-61
2023/06/30 03:33:29;;;;;;;;;;;;;;;;;;7364084;19;1321;-59
2023/06/30 03:35:58;;;;;;;;;;;;;;;;;;7364366;19;825;-61
2023/06/30 03:38:26;;;;;;;;;;;;;;;;;;7363747;19;1702;-59
2023/06/30 03:40:54;;;;;;;;;;;;;;;;;;7367322;19;1694;-59
2023/06/30 03:43:23;;;;;;;;;;;;;;;;;;7361760;19;2145;-60
2023/06/30 03:45:51;;;;;;;;;;;;;;;;;;7364037;19;1736;-59
2023/06/30 03:48:20;;;;;;;;;;;;;;;;;;7366007;19;1563;-59
2023/06/30 03:50:48;;;;;;;;;;;;;;;;;;7367666;19;1471;-58
2023/06/30 03:53:16;;;;;;;;;;;;;;;;;;7361909;19;1712;-59
2023/06/30 03:55:44;;;;;;;;;;;;;;;;;;7366525;19;1691;-59
2023/06/30 03:58:12;;;;;;;;;;;;;;;;;;7368170;19;1773;-61
2023/06/30 04:00:41;;;;;;;;;;;;;;;;;;7373701;19;2033;-59
2023/06/30 04:03:09;;;;;;;;;;;;;;;;;;7370002;19;1851;-60
2023/06/30 04:05:37;;;;;;;;;;;;;;;;;;7373976;19;1634;-60
2023/06/30 04:08:05;;;;;;;;;;;;;;;;;;7374115;19;1525;-58
2023/06/30 04:10:33;;;;;;;;;;;;;;;;;;7372193;19;2007;-61
2023/06/30 04:13:01;;;;;;;;;;;;;;;;;;7366430;19;1760;-59
2023/06/30 04:15:29;;;;;;;;;;;;;;;;;;7364683;19;1824;-60
2023/06/30 04:17:57;;;;;;;;;;;;;;;;;;7374516;19;1401;-59
2023/06/30 04:20:26;;;;;;;;;;;;;;;;;;7370049;19;840;-58
2023/06/30 04:22:54;;;;;;;;;;;;;;;;;;7367620;19;1850;-61
2023/06/30 04:25:22;;;;;;;;;;;;;;;;;;7372299;19;1914;-59
2023/06/30 04:27:50;;;;;;;;;;;;;;;;;;7372084;19;2013;-58
2023/06/30 04:30:18;;;;;;;;;;;;;;;;;;7373414;19;1725;-61
2023/06/30 04:32:46;;;;;;;;;;;;;;;;;;7371481;19;1836;-60
2023/06/30 04:35:15;;;;;;;;;;;;;;;;;;7370736;19;1333;-60
2023/06/30 04:37:44;;;;;;;;;;;;;;;;;;7369991;19;1840;-60
2023/06/30 04:40:12;;;;;;;;;;;;;;;;;;7371565;19;1690;-59
2023/06/30 04:42:40;;;;;;;;;;;;;;;;;;7372339;19;1858;-59
2023/06/30 04:45:08;;;;;;;;;;;;;;;;;;7370667;19;1994;-59
2023/06/30 04:47:37;;;;;;;;;;;;;;;;;;7372755;19;1612;-58
2023/06/30 04:50:05;;;;;;;;;;;;;;;;;;7373029;19;1830;-59
2023/06/30 04:52:33;;;;;;;;;;;;;;;;;;7368317;19;1308;-59
2023/06/30 04:55:01;;;;;;;;;;;;;;;;;;7369722;19;866;-60
2023/06/30 04:57:29;;;;;;;;;;;;;;;;;;7370278;19;1616;-60
2023/06/30 04:59:58;;;;;;;;;;;;;;;;;;7371081;19;1460;-61
2023/06/30 05:02:26;;;;;;;;;;;;;;;;;;7367809;19;1858;-59
2023/06/30 05:04:54;;;;;;;;;;;;;;;;;;7371087;19;1803;-58
2023/06/30 05:07:22;;;;;;;;;;;;;;;;;;7372047;19;1633;-60
2023/06/30 05:09:50;;;;;;;;;;;;;;;;;;7366528;19;801;-58
2023/06/30 05:12:18;;;;;;;;;;;;;;;;;;7370766;19;1811;-59
2023/06/30 05:14:46;;;;;;;;;;;;;;;;;;7371098;19;1567;-59
2023/06/30 05:17:15;;;;;;;;;;;;;;;;;;7370618;19;2074;-61
2023/06/30 05:19:43;;;;;;;;;;;;;;;;;;7372506;19;1766;-59
2023/06/30 05:22:11;;;;;;;;;;;;;;;;;;7368142;19;1294;-59
2023/06/30 05:24:39;;;;;;;;;;;;;;;;;;7365572;19;1849;-61
2023/06/30 05:27:07;;;;;;;;;;;;;;;;;;7370795;19;1747;-60
2023/06/30 05:29:35;;;;;;;;;;;;;;;;;;7370951;19;1746;-61
2023/06/30 05:32:03;;;;;;;;;;;;;;;;;;7372030;19;1553;-59
2023/06/30 05:34:32;;;;;;;;;;;;;;;;;;7365110;19;1676;-61
2023/06/30 05:37:00;;;;;;;;;;;;;;;;;;7372527;19;1461;-57
2023/06/30 05:39:28;;;;;;;;;;;;;;;;;;7367975;19;780;-60
2023/06/30 05:41:56;;;;;;;;;;;;;;;;;;7368352;19;1608;-60
2023/06/30 05:44:25;;;;;;;;;;;;;;;;;;7368180;19;1845;-59
2023/06/30 05:46:53;;;;;;;;;;;;;;;;;;7372314;19;1669;-58
2023/06/30 05:49:21;;;;;;;;;;;;;;;;;;7367377;19;1679;-61
2023/06/30 05:51:49;;;;;;;;;;;;;;;;;;7370045;19;1779;-57
2023/06/30 05:54:17;;;;;;;;;;;;;;;;;;7370916;19;1456;-62
2023/06/30 05:56:45;;;;;;;;;;;;;;;;;;7368417;19;1760;-60
2023/06/30 05:59:13;;;;;;;;;;;;;;;;;;7369507;19;1700;-60
2023/06/30 06:01:41;;;;;;;;;;;;;;;;;;7368270;19;1706;-60
2023/06/30 06:04:10;;;;;;;;;;;;;;;;;;7366789;19;1849;-61
2023/06/30 06:06:38;;;;;;;;;;;;;;;;;;7368276;19;1850;-60
2023/06/30 06:09:06;;;;;;;;;;;;;;;;;;7370109;19;1730;-61
2023/06/30 06:11:34;;;;;;;;;;;;;;;;;;7371235;19;1454;-57
2023/06/30 06:14:02;;;;;;;;;;;;;;;;;;7367719;19;869;-58
2023/06/30 06:16:30;;;;;;;;;;;;;;;;;;7367735;19;2276;-59
2023/06/30 06:18:58;;;;;;;;;;;;;;;;;;7370010;19;1703;-57
2023/06/30 06:21:27;;;;;;;;;;;;;;;;;;7366453;19;1788;-60
2023/06/30 06:23:55;;;;;;;;;;;;;;;;;;7369512;19;1815;-59
2023/06/30 06:26:23;;;;;;;;;;;;;;;;;;7367047;19;770;-62
2023/06/30 06:28:51;;;;;;;;;;;;;;;;;;7366522;19;1891;-62
2023/06/30 06:31:19;;;;;;;;;;;;;;;;;;7369148;19;1569;-62
2023/06/30 06:33:47;;;;;;;;;;;;;;;;;;7367791;19;1419;-61
2023/06/30 06:36:15;;;;;;;;;;;;;;;;;;7365030;19;918;-62
2023/06/30 06:38:43;;;;;;;;;;;;;;;;;;7365904;19;847;-62
2023/06/30 06:41:11;;;;;;;;;;;;;;;;;;7366337;19;831;-62
2023/06/30 06:43:40;;;;;;;;;;;;;;;;;;7365171;19;1846;-62
2023/06/30 06:46:08;;;;;;;;;;;;;;;;;;7366282;19;748;-60
2023/06/30 06:48:36;;;;;;;;;;;;;;;;;;7365554;19;803;-59
2023/06/30 06:51:04;;;;;;;;;;;;;;;;;;7366338;19;856;-60
2023/06/30 06:53:33;;;;;;;;;;;;;;;;;;7364571;19;1834;-60
2023/06/30 06:56:01;;;;;;;;;;;;;;;;;;7368194;19;1633;-60
2023/06/30 06:58:29;;;;;;;;;;;;;;;;;;7365711;19;841;-60
2023/06/30 07:00:57;;;;;;;;;;;;;;;;;;7366221;19;793;-60
2023/06/30 07:03:25;;;;;;;;;;;;;;;;;;7363050;19;2075;-60
2023/06/30 07:05:55;;;;;;;;;;;;;;;;;;7370146;19;1408;-62
2023/06/30 07:08:23;;;;;;;;;;;;;;;;;;7366037;19;921;-62
2023/06/30 07:10:51;;;;;;;;;;;;;;;;;;7368824;19;1743;-62
2023/06/30 07:13:19;;;;;;;;;;;;;;;;;;7366274;19;1338;-62
2023/06/30 07:15:47;;;;;;;;;;;;;;;;;;7367020;19;1721;-61
2023/06/30 07:18:17;;;;;;;;;;;;;;;;;;7368345;19;1967;-62
2023/06/30 07:20:45;;;;;;;;;;;;;;;;;;7369505;19;1839;-61
2023/06/30 07:23:13;;;;;;;;;;;;;;;;;;7364797;19;1877;-61
2023/06/30 07:25:42;;;;;;;;;;;;;;;;;;7367910;19;1871;-61
2023/06/30 07:28:10;;;;;;;;;;;;;;;;;;7367257;19;1725;-62
2023/06/30 07:30:38;;;;;;;;;;;;;;;;;;7367955;19;1576;-62
2023/06/30 07:33:06;;;;;;;;;;;;;;;;;;7362919;19;1987;-62
2023/06/30 07:35:34;;;;;;;;;;;;;;;;;;7365586;19;1357;-62
2023/06/30 07:38:02;;;;;;;;;;;;;;;;;;7365064;19;833;-61
2023/06/30 07:40:31;;;;;;;;;;;;;;;;;;7364527;19;893;-60
2023/06/30 07:42:59;;;;;;;;;;;;;;;;;;7362609;19;1838;-62
2023/06/30 07:45:27;;;;;;;;;;;;;;;;;;7365359;19;832;-61
2023/06/30 07:47:55;;;;;;;;;;;;;;;;;;7365580;19;761;-63
2023/06/30 07:50:24;;;;;;;;;;;;;;;;;;7364586;19;728;-62
2023/06/30 07:52:52;;;;;;;;;;;;;;;;;;7362849;19;1335;-61
2023/06/30 07:55:20;;;;;;;;;;;;;;;;;;7364890;19;763;-62
2023/06/30 07:57:48;;;;;;;;;;;;;;;;;;7363995;19;834;-62
2023/06/30 08:00:18;;;;;;;;;;;;;;;;;;7363699;19;852;-62
2023/06/30 08:02:46;;;;;;;;;;;;;;;;;;7361619;19;1300;-62
2023/06/30 08:05:14;;;;;;;;;;;;;;;;;;7362193;19;1842;-62
2023/06/30 08:07:45;;;;;;;;;;;;;;;;;;7363816;19;875;-61
2023/06/30 08:10:13;;;;;;;;;;;;;;;;;;7365758;19;1593;-62
2023/06/30 08:12:41;;;;;;;;;;;;;;;;;;7364473;19;1409;-61
2023/06/30 08:15:09;;;;;;;;;;;;;;;;;;7365072;19;1726;-62
2023/06/30 08:17:38;;;;;;;;;;;;;;;;;;7364226;19;1684;-62
2023/06/30 08:20:06;;;;;;;;;;;;;;;;;;7366637;19;1583;-60
2023/06/30 08:22:34;;;;;;;;;;;;;;;;;;7366815;19;1831;-61
2023/06/30 08:25:02;;;;;;;;;;;;;;;;;;7365719;19;2040;-60
2023/06/30 08:27:30;;;;;;;;;;;;;;;;;;7367716;19;1446;-61
2023/06/30 08:29:58;;;;;;;;;;;;;;;;;;7365769;19;1376;-58
2023/06/30 08:32:27;;;;;;;;;;;;;;;;;;7362109;19;1339;-62
2023/06/30 08:34:55;;;;;;;;;;;;;;;;;;7362341;19;853;-60
2023/06/30 08:37:23;;;;;;;;;;;;;;;;;;7363302;19;825;-57
2023/06/30 08:39:51;;;;;;;;;;;;;;;;;;7364450;19;1680;-57
2023/06/30 08:42:19;;;;;;;;;;;;;;;;;;7365798;19;1887;-60
2023/06/30 08:44:49;;;;;;;;;;;;;;;;;;7368189;19;1845;-59
2023/06/30 08:47:18;;;;;;;;;;;;;;;;;;7368616;19;709;-61
2023/06/30 08:49:47;;;;;;;;;;;;;;;;;;7369196;19;932;-61
2023/06/30 08:52:16;;;;;;;;;;;;;;;;;;7366844;19;1382;-60
2023/06/30 08:54:44;;;;;;;;;;;;;;;;;;7368966;19;838;-61
2023/06/30 08:57:15;;;;;;;;;;;;;;;;;;7369016;19;819;-58
2023/06/30 08:59:43;;;;;;;;;;;;;;;;;;7368306;19;696;-59
2023/06/30 09:02:11;;;;;;;;;;;;;;;;;;7368218;19;1271;-55
2023/06/30 09:04:39;;;;;;;;;;;;;;;;;;7369206;19;1841;-60
2023/06/30 09:07:07;;;;;;;;;;;;;;;;;;7369870;19;802;-59
2023/06/30 09:09:35;;;;;;;;;;;;;;;;;;7368986;19;828;-54
2023/06/30 09:12:03;;;;;;;;;;;;;;;;;;7367218;19;2292;-60
2023/06/30 09:14:33;;;;;;;;;;;;;;;;;;7369447;19;1924;-60
2023/06/30 09:17:01;;;;;;;;;;;;;;;;;;7370737;19;1705;-58
2023/06/30 09:19:30;;;;;;;;;;;;;;;;;;7371517;19;1635;-59
2023/06/30 09:21:58;;;;;;;;;;;;;;;;;;7371691;19;1695;-60
2023/06/30 09:24:26;;;;;;;;;;;;;;;;;;7371312;19;1865;-58
2023/06/30 09:26:54;;;;;;;;;;;;;;;;;;7371950;19;1620;-62
2023/06/30 09:29:22;;;;;;;;;;;;;;;;;;7366551;19;1762;-60
2023/06/30 09:31:50;;;;;;;;;;;;;;;;;;7370595;19;1860;-62
2023/06/30 09:34:19;;;;;;;;;;;;;;;;;;7370535;19;1600;-61
2023/06/30 09:36:47;;;;;;;;;;;;;;;;;;7371322;19;1670;-60
2023/06/30 09:39:16;;;;;;;;;;;;;;;;;;7368315;19;1849;-62
2023/06/30 09:41:44;;;;;;;;;;;;;;;;;;7369714;19;1736;-61
2023/06/30 09:44:12;;;;;;;;;;;;;;;;;;7368051;19;1932;-62
2023/06/30 09:46:40;;;;;;;;;;;;;;;;;;7371769;19;1303;-62
2023/06/30 09:49:08;;;;;;;;;;;;;;;;;;7367282;19;820;-62
2023/06/30 09:51:37;;;;;;;;;;;;;;;;;;7368071;19;2055;-62
2023/06/30 09:54:05;;;;;;;;;;;;;;;;;;7369795;19;1840;-62
2023/06/30 09:56:35;;;;;;;;;;;;;;;;;;7367610;19;1952;-61
2023/06/30 09:59:03;;;;;;;;;;;;;;;;;;7369018;19;2370;-61
2023/06/30 10:01:31;;;;;;;;;;;;;;;;;;7370773;19;1442;-61
2023/06/30 10:03:59;;;;;;;;;;;;;;;;;;7366670;19;2070;-59
2023/06/30 10:06:27;;;;;;;;;;;;;;;;;;7369918;19;1772;-61
2023/06/30 10:08:55;;;;;;;;;;;;;;;;;;7369519;19;1821;-59
2023/06/30 10:11:24;;;;;;;;;;;;;;;;;;7369878;19;1581;-59
2023/06/30 10:13:52;;;;;;;;;;;;;;;;;;7370815;19;1654;-60
2023/06/30 10:16:20;;;;;;;;;;;;;;;;;;7369434;19;1765;-61
2023/06/30 10:18:48;;;;;;;;;;;;;;;;;;7369131;19;1618;-61
2023/06/30 10:21:16;;;;;;;;;;;;;;;;;;7367181;19;1976;-61
2023/06/30 10:23:44;;;;;;;;;;;;;;;;;;7370575;19;1666;-60
2023/06/30 10:26:13;;;;;;;;;;;;;;;;;;7367911;19;1722;-61
2023/06/30 10:28:41;;;;;;;;;;;;;;;;;;7369618;19;1605;-60
2023/06/30 10:31:09;;;;;;;;;;;;;;;;;;7366795;19;801;-61
2023/06/30 10:33:37;;;;;;;;;;;;;;;;;;7363500;19;1259;-62
2023/06/30 10:36:05;;;;;;;;;;;;;;;;;;7367378;19;945;-59
2023/06/30 10:38:33;;;;;;;;;;;;;;;;;;7366080;19;821;-61
2023/06/30 10:41:01;;;;;;;;;;;;;;;;;;7366484;19;810;-61
2023/06/30 10:43:29;;;;;;;;;;;;;;;;;;7363873;19;1265;-62
2023/06/30 10:45:58;;;;;;;;;;;;;;;;;;7364772;19;1849;-60
2023/06/30 10:48:26;;;;;;;;;;;;;;;;;;7365129;19;861;-61
2023/06/30 10:50:54;;;;;;;;;;;;;;;;;;7366785;19;841;-60
2023/06/30 10:53:22;;;;;;;;;;;;;;;;;;7363771;19;1269;-61
2023/06/30 10:55:50;;;;;;;;;;;;;;;;;;7366637;19;796;-59
2023/06/30 10:58:18;;;;;;;;;;;;;;;;;;7365729;19;820;-61
2023/06/30 11:00:46;;;;;;;;;;;;;;;;;;7366369;19;815;-61
2023/06/30 11:03:14;;;;;;;;;;;;;;;;;;7363544;19;1210;-62
2023/06/30 11:05:43;;;;;;;;;;;;;;;;;;7364164;19;1869;-62
2023/06/30 11:08:11;;;;;;;;;;;;;;;;;;7363999;19;817;-62
2023/06/30 11:10:39;;;;;;;;;;;;;;;;;;7369878;19;1326;-61
2023/06/30 11:13:09;;;;;;;;;;;;;;;;;;7362588;19;1285;-62
2023/06/30 11:15:37;;;;;;;;;;;;;;;;;;7366130;19;987;-62
2023/06/30 11:18:06;;;;;;;;;;;;;;;;;;7367046;19;1206;-61
2023/06/30 11:20:34;;;;;;;;;;;;;;;;;;7366849;19;1804;-63
2023/06/30 11:23:02;;;;;;;;;;;;;;;;;;7365143;19;1744;-63
2023/06/30 11:25:30;;;;;;;;;;;;;;;;;;7364718;19;2086;-63
2023/06/30 11:28:00;;;;;;;;;;;;;;;;;;7368299;19;1635;-62
2023/06/30 11:30:28;;;;;;;;;;;;;;;;;;7368181;19;1662;-63
2023/06/30 11:32:56;;;;;;;;;;;;;;;;;;7368085;19;1477;-62
2023/06/30 11:35:24;;;;;;;;;;;;;;;;;;7365104;19;789;-65
2023/06/30 11:37:52;;;;;;;;;;;;;;;;;;7365384;19;817;-63
2023/06/30 11:40:21;;;;;;;;;;;;;;;;;;7365119;19;812;-62
2023/06/30 11:42:49;;;;;;;;;;;;;;;;;;7364097;19;1285;-60
2023/06/30 11:45:20;;;;;;;;;;;;;;;;;;7367164;19;1853;-60
2023/06/30 11:47:50;;;;;;;;;;;;;;;;;;7368297;19;1408;-61
2023/06/30 11:50:18;;;;;;;;;;;;;;;;;;7364840;19;1730;-60
2023/06/30 11:52:46;;;;;;;;;;;;;;;;;;7366701;19;1408;-62
2023/06/30 11:55:14;;;;;;;;;;;;;;;;;;7364543;19;920;-61
2023/06/30 11:57:42;;;;;;;;;;;;;;;;;;7362608;19;1776;-58
2023/06/30 12:00:11;;;;;;;;;;;;;;;;;;7364386;19;2026;-59
2023/06/30 12:02:56;;;;;;;;;;;;;;;;;;7362653;19;1854;-62
2023/06/30 12:05:25;;;;;;;;;;;;;;;;;;7364618;19;1876;-62
2023/06/30 12:07:55;;;;;;;;;;;;;;;;;;7367000;19;1844;-62
2023/06/30 12:10:23;;;;;;;;;;;;;;;;;;7364579;19;1749;-62
2023/06/30 12:12:51;;;;;;;;;;;;;;;;;;7363630;19;1791;-62
2023/06/30 12:15:21;;;;;;;;;;;;;;;;;;7365021;19;2064;-61
2023/06/30 12:17:49;;;;;;;;;;;;;;;;;;7365482;19;1879;-67
2023/06/30 12:20:17;;;;;;;;;;;;;;;;;;7371611;19;1852;-63
2023/06/30 12:22:46;;;;;;;;;;;;;;;;;;7369080;19;2109;-62
2023/06/30 12:25:15;;;;;;;;;;;;;;;;;;7368138;19;1862;-58
2023/06/30 12:27:43;;;;;;;;;;;;;;;;;;7369787;19;1855;-62
2023/06/30 12:30:11;;;;;;;;;;;;;;;;;;7366554;19;1922;-60
2023/06/30 12:32:41;;;;;;;;;;;;;;;;;;7362179;19;2774;-58
2023/06/30 12:35:09;;;;;;;;;;;;;;;;;;7370646;19;1828;-60
2023/06/30 12:37:38;;;;;;;;;;;;;;;;;;7366039;19;1857;-62
2023/06/30 12:40:08;;;;;;;;;;;;;;;;;;7372053;19;2094;-58
2023/06/30 12:42:36;;;;;;;;;;;;;;;;;;7371315;19;1510;-58
2023/06/30 12:45:05;;;;;;;;;;;;;;;;;;7371594;19;1863;-60
2023/06/30 12:47:33;;;;;;;;;;;;;;;;;;7373231;19;1340;-61
2023/06/30 12:50:02;;;;;;;;;;;;;;;;;;7371639;19;2031;-62
2023/06/30 12:52:30;;;;;;;;;;;;;;;;;;7370794;19;1714;-58
2023/06/30 12:54:58;;;;;;;;;;;;;;;;;;7370194;19;1895;-62
2023/06/30 12:57:26;;;;;;;;;;;;;;;;;;7371916;19;1604;-62
2023/06/30 12:59:54;;;;;;;;;;;;;;;;;;7373239;19;1458;-63
2023/06/30 13:02:23;;;;;;;;;;;;;;;;;;7371862;19;1977;-61
2023/06/30 13:04:51;;;;;;;;;;;;;;;;;;7373018;19;1866;-62
2023/06/30 13:07:19;;;;;;;;;;;;;;;;;;7370119;19;809;-61
2023/06/30 13:09:48;;;;;;;;;;;;;;;;;;7370718;19;2123;-60
2023/06/30 13:12:17;;;;;;;;;;;;;;;;;;7368714;19;1869;-60
2023/06/30 13:14:45;;;;;;;;;;;;;;;;;;7373162;19;1353;-61
2023/06/30 13:17:14;;;;;;;;;;;;;;;;;;7370456;19;1969;-61
2023/06/30 13:19:43;;;;;;;;;;;;;;;;;;7370606;19;1895;-61
2023/06/30 13:22:12;;;;;;;;;;;;;;;;;;7370570;19;1734;-61
2023/06/30 13:24:40;;;;;;;;;;;;;;;;;;7369535;19;1885;-60
2023/06/30 13:27:08;;;;;;;;;;;;;;;;;;7370941;19;1466;-60
2023/06/30 13:29:37;;;;;;;;;;;;;;;;;;7367759;19;1705;-61
2023/06/30 13:32:05;;;;;;;;;;;;;;;;;;7370213;19;1724;-59
2023/06/30 13:34:34;;;;;;;;;;;;;;;;;;7367472;19;794;-61
2023/06/30 13:37:02;;;;;;;;;;;;;;;;;;7367071;19;1738;-61
2023/06/30 13:39:30;;;;;;;;;;;;;;;;;;7368667;19;1674;-62
2023/06/30 13:41:58;;;;;;;;;;;;;;;;;;7369332;19;1723;-59
2023/06/30 13:44:26;;;;;;;;;;;;;;;;;;7369038;19;1696;-62
2023/06/30 13:46:54;;;;;;;;;;;;;;;;;;7367604;19;1863;-61
2023/06/30 13:49:22;;;;;;;;;;;;;;;;;;7368120;19;1739;-61
2023/06/30 13:51:50;;;;;;;;;;;;;;;;;;7369756;19;2026;-60
2023/06/30 13:54:19;;;;;;;;;;;;;;;;;;7370876;19;1481;-62
2023/06/30 13:56:47;;;;;;;;;;;;;;;;;;7367310;19;1940;-60
2023/06/30 13:59:15;;;;;;;;;;;;;;;;;;7369799;19;1399;-63
2023/06/30 14:01:44;;;;;;;;;;;;;;;;;;7368802;19;1818;-61
2023/06/30 14:04:12;;;;;;;;;;;;;;;;;;7368362;19;2106;-61
2023/06/30 14:06:40;;;;;;;;;;;;;;;;;;7366230;19;2087;-60
2023/06/30 14:09:09;;;;;;;;;;;;;;;;;;7366783;19;1903;-59
2023/06/30 14:11:37;;;;;;;;;;;;;;;;;;7370286;19;1492;-63
2023/06/30 14:14:06;;;;;;;;;;;;;;;;;;7369359;19;1805;-62
2023/06/30 14:16:34;;;;;;;;;;;;;;;;;;7370666;19;1806;-63
2023/06/30 14:19:03;;;;;;;;;;;;;;;;;;7367649;19;1650;-63
2023/06/30 14:21:31;;;;;;;;;;;;;;;;;;7369591;19;1659;-61
2023/06/30 14:23:59;;;;;;;;;;;;;;;;;;7371058;19;1626;-62
2023/06/30 14:26:27;;;;;;;;;;;;;;;;;;7364594;19;1864;-63
2023/06/30 14:28:55;;;;;;;;;;;;;;;;;;7367432;19;1882;-62
2023/06/30 14:31:23;;;;;;;;;;;;;;;;;;7370038;19;1394;-62
2023/06/30 14:33:52;;;;;;;;;;;;;;;;;;7369708;19;1871;-63
2023/06/30 14:36:20;;;;;;;;;;;;;;;;;;7369179;19;1728;-62
2023/06/30 14:38:48;;;;;;;;;;;;;;;;;;7365935;19;826;-63
2023/06/30 14:41:16;;;;;;;;;;;;;;;;;;7364926;19;864;-62
2023/06/30 14:43:44;;;;;;;;;;;;;;;;;;7365525;19;1638;-62
2023/06/30 14:46:12;;;;;;;;;;;;;;;;;;7367716;19;1877;-61
2023/06/30 14:48:40;;;;;;;;;;;;;;;;;;7366542;19;1652;-61
2023/06/30 14:51:08;;;;;;;;;;;;;;;;;;7368703;19;1500;-61
2023/06/30 14:53:37;;;;;;;;;;;;;;;;;;7362350;19;1307;-62
2023/06/30 14:56:05;;;;;;;;;;;;;;;;;;7365738;19;1634;-61
2023/06/30 14:58:33;;;;;;;;;;;;;;;;;;7368749;19;1749;-62
2023/06/30 15:01:01;;;;;;;;;;;;;;;;;;7370428;19;1510;-61
2023/06/30 15:03:29;;;;;;;;;;;;;;;;;;7363180;19;1295;-62
2023/06/30 15:05:57;;;;;;;;;;;;;;;;;;7367232;19;1856;-60
2023/06/30 15:08:25;;;;;;;;;;;;;;;;;;7368633;19;1659;-61
2023/06/30 15:10:53;;;;;;;;;;;;;;;;;;7364342;19;1706;-62
2023/06/30 15:13:22;;;;;;;;;;;;;;;;;;7366518;19;1650;-60
2023/06/30 15:15:50;;;;;;;;;;;;;;;;;;7367063;19;1699;-62
2023/06/30 15:18:18;;;;;;;;;;;;;;;;;;7367425;19;1968;-62
2023/06/30 15:20:47;;;;;;;;;;;;;;;;;;7369459;19;1698;-63
2023/06/30 15:23:15;;;;;;;;;;;;;;;;;;7361901;19;1317;-63
2023/06/30 15:25:43;;;;;;;;;;;;;;;;;;7363925;19;1988;-63
2023/06/30 15:28:11;;;;;;;;;;;;;;;;;;7367007;19;1614;-62
2023/06/30 15:30:39;;;;;;;;;;;;;;;;;;7365773;19;903;-62
2023/06/30 15:33:08;;;;;;;;;;;;;;;;;;7362966;19;1725;-63
2023/06/30 15:35:36;;;;;;;;;;;;;;;;;;7368802;19;1464;-61
2023/06/30 15:38:06;;;;;;;;;;;;;;;;;;7364181;19;836;-62
2023/06/30 15:40:34;;;;;;;;;;;;;;;;;;7365812;19;1723;-62
2023/06/30 15:43:02;;;;;;;;;;;;;;;;;;7366360;19;1421;-62
2023/06/30 15:45:31;;;;;;;;;;;;;;;;;;7363873;19;1861;-62
2023/06/30 15:47:59;;;;;;;;;;;;;;;;;;7362967;19;1541;-61
2023/06/30 15:50:27;;;;;;;;;;;;;;;;;;7365279;19;1949;-62
2023/06/30 15:52:55;;;;;;;;;;;;;;;;;;7368736;19;1555;-62
2023/06/30 15:55:23;;;;;;;;;;;;;;;;;;7377324;19;1855;-62
2023/06/30 15:57:55;;;;;;;;;;;;;;;;;;7378840;19;1963;-62
2023/06/30 16:00:24;;;;;;;;;;;;;;;;;;7380573;19;1645;-61
2023/06/30 16:02:52;;;;;;;;;;;;;;;;;;7374175;19;1738;-62
2023/06/30 16:05:20;;;;;;;;;;;;;;;;;;7381261;19;1620;-62
2023/06/30 16:07:48;;;;;;;;;;;;;;;;;;7375234;19;1841;-62
2023/06/30 16:10:16;;;;;;;;;;;;;;;;;;7377449;19;868;-62
2023/06/30 16:12:44;;;;;;;;;;;;;;;;;;7376240;19;1931;-62
2023/06/30 16:15:13;;;;;;;;;;;;;;;;;;7378255;19;1772;-61
2023/06/30 16:17:41;;;;;;;;;;;;;;;;;;7379365;19;1458;-63
2023/06/30 16:20:09;;;;;;;;;;;;;;;;;;7377696;19;1862;-61
2023/06/30 16:22:37;;;;;;;;;;;;;;;;;;7376706;19;1667;-61
2023/06/30 16:25:05;;;;;;;;;;;;;;;;;;7378089;19;1607;-62
2023/06/30 16:27:33;;;;;;;;;;;;;;;;;;7378879;19;1842;-62
2023/06/30 16:30:01;;;;;;;;;;;;;;;;;;7379165;19;1502;-62
2023/06/30 16:32:30;;;;;;;;;;;;;;;;;;7376404;19;1637;-61
2023/06/30 16:34:58;;;;;;;;;;;;;;;;;;7381990;19;1231;-62
2023/06/30 16:37:26;;;;;;;;;;;;;;;;;;7377253;19;802;-62
2023/06/30 16:39:55;;;;;;;;;;;;;;;;;;7374328;19;1604;-59
2023/06/30 16:42:23;;;;;;;;;;;;;;;;;;7378727;19;1538;-62
2023/06/30 16:44:51;;;;;;;;;;;;;;;;;;7376149;19;1905;-60
2023/06/30 16:47:19;;;;;;;;;;;;;;;;;;7377275;19;1850;-63
2023/06/30 16:49:47;;;;;;;;;;;;;;;;;;7376297;19;836;-60
2023/06/30 16:52:15;;;;;;;;;;;;;;;;;;7375368;19;1292;-63
2023/06/30 16:54:43;;;;;;;;;;;;;;;;;;7376643;19;831;-60
2023/06/30 16:57:12;;;;;;;;;;;;;;;;;;7375246;19;764;-62
2023/06/30 16:59:40;;;;;;;;;;;;;;;;;;7375939;19;836;-62
2023/06/30 17:02:08;;;;;;;;;;;;;;;;;;7375551;19;1269;-62
2023/06/30 17:04:37;;;;;;;;;;;;;;;;;;7372810;19;826;-61
2023/06/30 17:07:05;;;;;;;;;;;;;;;;;;7367971;19;1846;-62
2023/06/30 17:09:33;;;;;;;;;;;;;;;;;;7367652;19;876;-62
2023/06/30 17:12:02;;;;;;;;;;;;;;;;;;7368168;19;1279;-62